Time;durP1;ratioP1;P1;durP2;ratioP2;P2;SDS_P1;SDS_P2;PMS_P1;PMS_P2;Temp;Humidity;BMP_temperature;BMP_pressure;BME280_temperature;BME280_humidity;BME280_pressure;Samples;Min_cycle;Max_cycle;Signal;HPM_P1;HPM_P2
2022/09/24 00:00:05;;;;;;;63.43;34.97;;;8.00;99.90;;;;;;9818633;30;20044;-87
2022/09/24 00:05:06;;;;;;;64.20;36.33;;;7.90;99.90;;;;;;9862530;30;20064;-87
2022/09/24 00:10:07;;;;;;;67.60;37.13;;;7.80;99.90;;;;;;9865869;30;20538;-86
2022/09/24 00:15:08;;;;;;;63.70;33.93;;;7.70;99.90;;;;;;9864256;30;20054;-85
2022/09/24 00:20:08;;;;;;;69.13;38.47;;;7.60;99.90;;;;;;9860941;30;20068;-85
2022/09/24 00:30:28;;;;;;;73.10;38.67;;;7.50;99.90;;;;;;9856115;30;20043;-86
2022/09/24 00:35:31;;;;;;;70.03;38.00;;;7.50;99.90;;;;;;9867114;30;20051;-85
2022/09/24 00:40:34;;;;;;;68.00;37.17;;;7.50;99.90;;;;;;9850285;30;20048;-85
2022/09/24 00:45:35;;;;;;;67.27;38.57;;;7.30;99.90;;;;;;9865420;30;20032;-86
2022/09/24 00:50:35;;;;;;;65.50;38.27;;;7.20;99.90;;;;;;9850738;30;20036;-87
2022/09/24 00:55:38;;;;;;;73.37;40.63;;;7.10;99.90;;;;;;9866767;30;20051;-85
2022/09/24 01:00:44;;;;;;;76.37;41.80;;;7.10;99.90;;;;;;9865401;30;20043;-86
2022/09/24 01:05:45;;;;;;;70.82;40.05;;;7.00;99.90;;;;;;9849541;30;20039;-85
2022/09/24 01:11:09;;;;;;;81.83;43.57;;;6.90;99.90;;;;;;9850021;30;20525;-84
2022/09/24 01:16:27;;;;;;;71.17;40.47;;;6.90;99.90;;;;;;9862875;30;20689;-84
2022/09/24 01:21:38;;;;;;;78.27;43.00;;;6.90;99.90;;;;;;9865524;30;20095;-84
2022/09/24 01:26:55;;;;;;;76.57;41.77;;;6.80;99.90;;;;;;9865079;30;20035;-86
2022/09/24 01:32:36;;;;;;;81.33;41.30;;;6.60;99.90;;;;;;9846657;30;20096;-84
2022/09/24 01:37:41;;;;;;;71.80;37.57;;;6.50;99.90;;;;;;9849117;30;20055;-84
2022/09/24 01:42:43;;;;;;;80.63;42.73;;;6.40;99.90;;;;;;9848543;30;20031;-84
2022/09/24 01:47:44;;;;;;;80.07;42.07;;;6.30;99.90;;;;;;9860646;30;20036;-84
2022/09/24 01:52:51;;;;;;;74.90;42.10;;;6.20;99.90;;;;;;9832218;30;20801;-87
2022/09/24 01:58:00;;;;;;;82.83;43.07;;;6.00;99.90;;;;;;9858818;30;20039;-84
2022/09/24 02:03:13;;;;;;;92.70;48.53;;;6.00;99.90;;;;;;9838245;30;20476;-84
2022/09/24 02:08:20;;;;;;;84.50;45.83;;;6.00;99.90;;;;;;9853000;30;20069;-83
2022/09/24 02:13:24;;;;;;;77.73;41.07;;;6.00;99.90;;;;;;9855591;30;20035;-85
2022/09/24 02:18:30;;;;;;;70.13;39.17;;;6.00;99.90;;;;;;9858664;30;20051;-83
2022/09/24 02:23:36;;;;;;;76.67;41.70;;;6.00;99.90;;;;;;9861335;30;20592;-83
2022/09/24 02:28:36;;;;;;;68.85;38.88;;;5.90;99.90;;;;;;9856440;30;20044;-83
2022/09/24 02:39:00;;;;;;;81.57;42.23;;;5.90;99.90;;;;;;9862324;30;20036;-83
2022/09/24 02:44:00;;;;;;;64.97;36.97;;;5.90;99.90;;;;;;9855519;30;20036;-83
2022/09/24 02:49:01;;;;;;;63.77;37.87;;;6.00;99.90;;;;;;9861502;30;20096;-84
2022/09/24 02:54:03;;;;;;;65.47;37.67;;;6.00;99.90;;;;;;9853373;30;20044;-85
2022/09/24 02:59:03;;;;;;;72.80;38.83;;;5.90;99.90;;;;;;9855190;30;20032;-85
2022/09/24 03:04:05;;;;;;;73.43;39.80;;;5.90;99.90;;;;;;9855027;30;20060;-84
2022/09/24 03:09:06;;;;;;;67.30;37.97;;;5.80;99.90;;;;;;9855671;30;20044;-86
2022/09/24 03:14:06;;;;;;;65.93;38.57;;;5.70;99.90;;;;;;9856706;30;20043;-83
2022/09/24 03:19:07;;;;;;;69.53;39.77;;;5.80;99.90;;;;;;9858912;30;20043;-83
2022/09/24 03:24:07;;;;;;;64.33;37.13;;;5.90;99.90;;;;;;9855002;30;20040;-85
2022/09/24 03:29:09;;;;;;;61.73;35.97;;;5.90;99.90;;;;;;9842331;30;20422;-83
2022/09/24 03:34:09;;;;;;;60.03;34.33;;;5.90;99.90;;;;;;9844503;30;20425;-83
2022/09/24 03:39:10;;;;;;;67.60;36.40;;;5.90;99.90;;;;;;9865337;30;20043;-83
2022/09/24 03:44:10;;;;;;;66.77;37.00;;;5.80;99.90;;;;;;9851770;30;20031;-84
2022/09/24 03:49:11;;;;;;;67.50;37.10;;;5.70;99.90;;;;;;9850893;30;20052;-84
2022/09/24 03:54:11;;;;;;;80.37;44.83;;;5.60;99.90;;;;;;9865128;30;20133;-83
2022/09/24 03:59:12;;;;;;;89.87;47.10;;;5.60;99.90;;;;;;9850831;30;20068;-83
2022/09/24 04:04:15;;;;;;;99.17;51.07;;;5.60;99.90;;;;;;9867670;30;20120;-83
2022/09/24 04:09:15;;;;;;;78.97;45.50;;;5.60;99.90;;;;;;9860196;30;20043;-82
2022/09/24 04:14:16;;;;;;;70.83;42.23;;;5.70;99.90;;;;;;9866445;30;20048;-83
2022/09/24 04:19:17;;;;;;;76.33;42.53;;;5.80;99.90;;;;;;9867011;30;20044;-85
2022/09/24 04:24:18;;;;;;;79.60;43.90;;;5.80;99.90;;;;;;9866119;30;20493;-84
2022/09/24 04:29:18;;;;;;;70.50;40.90;;;5.80;99.90;;;;;;9864657;30;20047;-83
2022/09/24 04:34:20;;;;;;;88.17;46.27;;;5.80;99.90;;;;;;9852475;30;20047;-84
2022/09/24 04:39:25;;;;;;;64.57;37.77;;;5.70;99.90;;;;;;9850256;30;20030;-84
2022/09/24 04:44:28;;;;;;;66.72;40.30;;;5.70;99.90;;;;;;9862624;30;20036;-83
2022/09/24 04:49:29;;;;;;;80.57;44.47;;;5.80;99.90;;;;;;9860819;30;20070;-83
2022/09/24 04:54:30;;;;;;;84.33;43.13;;;5.80;99.90;;;;;;9864729;30;20146;-83
2022/09/24 04:59:31;;;;;;;73.70;43.30;;;5.90;99.90;;;;;;9857761;30;20028;-80
2022/09/24 05:04:31;;;;;;;69.30;40.07;;;5.90;99.90;;;;;;9863364;30;20607;-82
2022/09/24 05:09:32;;;;;;;83.13;44.30;;;5.90;99.90;;;;;;9864520;30;20023;-80
2022/09/24 05:14:32;;;;;;;78.53;43.47;;;6.00;99.90;;;;;;9864533;30;20100;-81
2022/09/24 05:19:33;;;;;;;70.60;41.30;;;6.10;99.90;;;;;;9864713;30;20638;-81
2022/09/24 05:24:33;;;;;;;78.87;43.07;;;6.30;99.90;;;;;;9862438;30;20044;-83
2022/09/24 05:29:39;;;;;;;73.07;42.53;;;6.40;99.90;;;;;;9848520;30;20800;-82
2022/09/24 05:34:41;;;;;;;75.20;46.27;;;6.70;99.90;;;;;;9863722;30;20079;-81
2022/09/24 05:39:41;;;;;;;70.77;44.30;;;6.90;99.90;;;;;;9863660;30;20043;-82
2022/09/24 05:44:44;;;;;;;78.63;49.80;;;7.10;99.90;;;;;;9860186;30;20579;-81
2022/09/24 05:49:45;;;;;;;64.13;38.47;;;7.30;99.90;;;;;;9858147;30;20140;-81
2022/09/24 05:54:45;;;;;;;52.70;34.30;;;7.50;99.90;;;;;;9861000;30;20100;-81
2022/09/24 05:59:46;;;;;;;58.03;37.43;;;7.70;99.90;;;;;;9862416;30;20453;-83
2022/09/24 06:04:46;;;;;;;58.30;36.47;;;7.80;99.90;;;;;;9857276;30;20068;-82
2022/09/24 06:09:47;;;;;;;71.33;44.27;;;7.90;99.90;;;;;;9845569;30;20038;-80
2022/09/24 06:14:48;;;;;;;53.47;33.20;;;8.00;99.90;;;;;;9855981;30;20413;-81
2022/09/24 06:19:49;;;;;;;55.07;35.77;;;8.00;99.90;;;;;;9858615;30;20047;-80
2022/09/24 06:24:50;;;;;;;57.30;34.87;;;8.10;99.90;;;;;;9857960;30;20100;-82
2022/09/24 06:29:51;;;;;;;48.93;31.80;;;8.10;99.90;;;;;;9832371;30;20028;-83
2022/09/24 06:34:51;;;;;;;97.83;50.57;;;8.20;99.90;;;;;;9849576;30;20454;-80
2022/09/24 06:39:52;;;;;;;66.83;37.07;;;8.40;99.90;;;;;;9850907;30;20043;-81
2022/09/24 06:44:52;;;;;;;53.03;32.43;;;8.60;99.90;;;;;;9854260;30;20060;-82
2022/09/24 06:49:53;;;;;;;49.40;29.83;;;8.80;99.90;;;;;;9856950;30;20478;-83
2022/09/24 06:54:54;;;;;;;45.10;28.77;;;8.80;99.90;;;;;;9855730;30;20058;-80
2022/09/24 06:59:55;;;;;;;51.53;31.47;;;9.00;99.90;;;;;;9833400;30;20028;-82
2022/09/24 07:04:56;;;;;;;46.93;32.00;;;9.10;99.90;;;;;;9853054;30;20051;-80
2022/09/24 07:09:56;;;;;;;49.73;30.97;;;9.40;99.90;;;;;;9843039;30;20028;-83
2022/09/24 07:14:59;;;;;;;47.20;29.17;;;9.50;99.90;;;;;;9848600;30;20124;-82
2022/09/24 07:19:59;;;;;;;46.22;29.75;;;9.80;99.90;;;;;;9859144;30;20097;-81
2022/09/24 07:25:00;;;;;;;45.80;28.38;;;10.10;99.90;;;;;;9858774;30;20085;-81
2022/09/24 07:30:01;;;;;;;42.72;27.73;;;10.30;99.90;;;;;;9844607;30;20027;-82
2022/09/24 07:35:02;;;;;;;47.92;30.08;;;10.60;99.90;;;;;;9855629;30;20048;-82
2022/09/24 07:40:02;;;;;;;46.17;30.00;;;10.70;99.90;;;;;;9856657;30;20046;-82
2022/09/24 07:45:03;;;;;;;40.85;27.33;;;10.90;99.90;;;;;;9838402;30;20389;-83
2022/09/24 07:50:04;;;;;;;38.42;26.20;;;11.10;99.90;;;;;;9856500;30;20036;-80
2022/09/24 07:55:06;;;;;;;39.72;25.17;;;11.20;99.90;;;;;;9857446;30;20039;-81
2022/09/24 08:00:07;;;;;;;39.55;25.45;;;11.30;99.90;;;;;;9845116;30;20545;-80
2022/09/24 08:05:09;;;;;;;43.20;25.48;;;11.60;99.90;;;;;;9856546;30;20516;-81
2022/09/24 08:10:10;;;;;;;34.25;23.02;;;11.60;99.90;;;;;;9854639;30;20039;-81
2022/09/24 08:15:10;;;;;;;39.42;22.38;;;11.80;99.90;;;;;;9854903;30;20093;-81
2022/09/24 08:20:11;;;;;;;36.03;23.02;;;12.00;99.90;;;;;;9858112;30;20035;-81
2022/09/24 08:25:11;;;;;;;28.70;19.70;;;12.20;99.90;;;;;;9861753;30;20040;-80
2022/09/24 08:30:12;;;;;;;27.83;18.10;;;12.50;99.90;;;;;;9859489;30;20036;-80
2022/09/24 08:35:14;;;;;;;28.20;18.58;;;12.70;99.90;;;;;;9844799;30;20044;-80
2022/09/24 08:40:21;;;;;;;28.55;18.27;;;12.90;99.90;;;;;;9866336;30;20038;-81
2022/09/24 08:50:56;;;;;;;21.90;15.27;;;13.20;99.90;;;;;;9855584;30;20040;-81
2022/09/24 08:55:59;;;;;;;19.40;14.02;;;13.40;99.90;;;;;;9860833;30;20164;-80
2022/09/24 09:01:16;;;;;;;19.25;13.32;;;13.50;99.90;;;;;;9861109;30;20039;-81
2022/09/24 09:06:38;;;;;;;18.02;12.57;;;13.60;99.90;;;;;;9861382;30;20027;-80
2022/09/24 09:11:42;;;;;;;15.82;11.20;;;13.80;99.90;;;;;;9865293;30;20063;-81
2022/09/24 09:16:43;;;;;;;16.85;11.00;;;14.00;99.90;;;;;;9859916;30;20402;-80
2022/09/24 09:21:51;;;;;;;17.90;11.65;;;14.20;99.90;;;;;;9865020;30;20027;-80
2022/09/24 09:26:54;;;;;;;13.73;10.10;;;14.40;99.90;;;;;;9865767;30;20031;-80
2022/09/24 09:31:55;;;;;;;18.60;10.38;;;14.60;99.90;;;;;;9864854;30;20475;-80
2022/09/24 09:37:41;;;;;;;14.75;8.60;;;14.90;99.90;;;;;;9860665;30;20046;-80
2022/09/24 09:42:44;;;;;;;18.10;11.15;;;15.20;99.90;;;;;;9863009;30;20077;-80
2022/09/24 09:47:49;;;;;;;15.05;9.13;;;15.40;99.90;;;;;;9862816;30;20019;-80
2022/09/24 09:52:49;;;;;;;15.00;10.15;;;15.50;99.90;;;;;;9859555;30;20548;-80
2022/09/24 09:57:51;;;;;;;16.77;9.85;;;15.60;99.90;;;;;;9858364;30;20032;-81
2022/09/24 10:02:52;;;;;;;16.02;10.23;;;15.80;99.90;;;;;;9857668;30;20363;-81
2022/09/24 10:07:59;;;;;;;18.70;12.23;;;15.60;99.90;;;;;;9864250;30;20152;-80
2022/09/24 10:13:11;;;;;;;15.80;9.57;;;15.70;99.90;;;;;;9858575;30;20512;-81
2022/09/24 10:18:13;;;;;;;14.52;8.98;;;15.90;99.90;;;;;;9857091;30;20409;-80
2022/09/24 10:23:20;;;;;;;11.25;7.90;;;15.90;99.90;;;;;;9860945;30;20036;-80
2022/09/24 10:33:44;;;;;;;10.43;7.85;;;16.00;99.90;;;;;;9862159;30;20060;-81
2022/09/24 10:38:44;;;;;;;13.07;8.40;;;15.90;99.90;;;;;;9862269;30;20060;-80
2022/09/24 10:43:56;;;;;;;15.90;10.93;;;16.00;99.90;;;;;;9861975;30;20456;-80
2022/09/24 10:49:16;;;;;;;11.27;7.65;;;16.10;99.90;;;;;;9852104;30;20039;-80
2022/09/24 10:54:34;;;;;;;11.90;8.15;;;16.20;99.90;;;;;;9858541;30;20134;-80
2022/09/24 10:59:58;;;;;;;10.52;7.68;;;16.10;99.90;;;;;;9859426;30;20078;-80
2022/09/24 11:05:08;;;;;;;10.20;7.22;;;16.10;99.90;;;;;;9861298;30;20059;-80
2022/09/24 11:10:35;;;;;;;8.15;6.30;;;16.10;99.90;;;;;;9861345;30;20092;-80
2022/09/24 11:16:08;;;;;;;16.52;13.38;;;15.90;99.90;;;;;;9859292;30;20040;-80
2022/09/24 11:21:47;;;;;;;9.05;6.38;;;16.00;99.90;;;;;;9858918;30;20501;-80
2022/09/24 11:27:12;;;;;;;11.85;7.38;;;16.40;99.90;;;;;;9855524;30;20036;-81
2022/09/24 11:32:42;;;;;;;13.43;7.45;;;16.80;99.90;;;;;;9853784;30;20047;-81
2022/09/24 11:37:54;;;;;;;10.40;6.85;;;16.80;98.90;;;;;;9861045;30;20039;-81
2022/09/24 11:43:45;;;;;;;10.07;6.55;;;16.70;99.90;;;;;;9855604;30;20035;-80
2022/09/24 11:49:16;;;;;;;5.97;3.75;;;16.60;99.90;;;;;;9824427;30;20055;-80
2022/09/24 11:54:55;;;;;;;10.43;7.00;;;16.70;99.80;;;;;;9842923;30;20449;-80
2022/09/24 12:00:15;;;;;;;18.65;11.27;;;16.80;96.20;;;;;;9843871;30;20040;-80
2022/09/24 12:05:27;;;;;;;12.40;7.00;;;16.90;96.60;;;;;;9867397;30;20060;-81
2022/09/24 12:10:42;;;;;;;5.47;4.30;;;17.30;99.00;;;;;;9867674;30;20115;-80
2022/09/24 12:15:48;;;;;;;5.65;3.85;;;17.40;95.60;;;;;;9867395;30;20382;-80
2022/09/24 12:20:53;;;;;;;5.05;3.60;;;17.50;95.90;;;;;;9863213;30;20036;-80
2022/09/24 12:25:57;;;;;;;5.53;3.40;;;17.60;93.90;;;;;;9862910;30;20089;-80
2022/09/24 12:36:23;;;;;;;5.22;3.97;;;17.40;95.30;;;;;;9866968;30;20130;-80
2022/09/24 12:41:40;;;;;;;5.60;3.55;;;17.30;96.00;;;;;;9866470;30;20054;-81
2022/09/24 12:46:44;;;;;;;14.32;10.23;;;17.20;94.70;;;;;;9861313;30;20465;-80
2022/09/24 12:51:46;;;;;;;10.63;6.25;;;17.20;94.70;;;;;;9865607;30;20046;-81
2022/09/24 12:56:47;;;;;;;6.38;5.28;;;17.20;95.20;;;;;;9863569;30;20031;-79
2022/09/24 13:01:47;;;;;;;7.40;5.10;;;17.30;94.30;;;;;;9848437;30;20079;-80
2022/09/24 13:06:48;;;;;;;21.45;11.30;;;17.10;93.30;;;;;;9866221;30;20463;-80
2022/09/24 13:12:04;;;;;;;16.58;8.30;;;16.90;94.50;;;;;;9860018;30;20046;-80
2022/09/24 13:17:06;;;;;;;9.32;5.88;;;16.80;94.80;;;;;;9860456;30;20035;-80
2022/09/24 13:22:21;;;;;;;11.25;7.22;;;16.70;93.30;;;;;;9864276;30;20036;-82
2022/09/24 13:27:36;;;;;;;5.15;4.18;;;16.40;92.90;;;;;;9864923;30;20036;-82
2022/09/24 13:32:47;;;;;;;6.50;3.90;;;16.40;95.20;;;;;;9857514;30;20050;-81
2022/09/24 13:37:56;;;;;;;10.55;5.13;;;16.80;94.70;;;;;;9860454;30;20043;-81
2022/09/24 13:43:32;;;;;;;3.78;2.67;;;17.30;95.00;;;;;;9860827;30;20035;-81
2022/09/24 13:48:40;;;;;;;5.40;4.10;;;17.80;91.60;;;;;;9838686;30;20405;-81
2022/09/24 13:53:48;;;;;;;4.55;2.70;;;17.90;92.10;;;;;;9852519;30;20134;-81
2022/09/24 13:58:50;;;;;;;4.47;4.05;;;17.80;91.70;;;;;;9857718;30;20043;-83
2022/09/24 14:03:54;;;;;;;7.13;5.55;;;17.60;91.90;;;;;;9861861;30;20063;-83
2022/09/24 14:08:55;;;;;;;5.45;4.30;;;17.40;91.30;;;;;;9862870;30;20032;-82
2022/09/24 14:13:58;;;;;;;4.75;3.58;;;17.10;92.40;;;;;;9862351;30;20040;-82
2022/09/24 14:19:05;;;;;;;5.78;4.03;;;16.90;92.20;;;;;;9858658;30;20427;-82
2022/09/24 14:24:20;;;;;;;5.90;3.88;;;16.60;92.60;;;;;;9860973;30;20042;-83
2022/09/24 14:29:28;;;;;;;41.58;29.48;;;16.20;92.80;;;;;;9862097;30;20111;-82
2022/09/24 14:34:29;;;;;;;17.05;9.43;;;15.90;93.40;;;;;;9861734;30;20071;-80
2022/09/24 14:39:29;;;;;;;43.45;30.27;;;15.70;93.70;;;;;;9858645;30;20464;-82
2022/09/24 14:44:30;;;;;;;11.45;7.60;;;15.60;94.00;;;;;;9862117;30;20040;-82
2022/09/24 14:49:43;;;;;;;22.05;14.85;;;15.50;94.70;;;;;;9856561;30;20043;-83
2022/09/24 14:54:43;;;;;;;23.98;18.20;;;15.40;94.50;;;;;;9859865;30;20450;-82
2022/09/24 14:59:45;;;;;;;9.73;5.35;;;15.40;94.30;;;;;;9858864;30;20036;-82
2022/09/24 15:04:49;;;;;;;10.38;6.55;;;15.20;95.50;;;;;;9858470;30;20060;-82
2022/09/24 15:09:56;;;;;;;10.30;6.22;;;14.90;96.10;;;;;;9860794;30;20641;-81
2022/09/24 15:15:01;;;;;;;11.18;6.22;;;14.90;96.80;;;;;;9860869;30;20054;-83
2022/09/24 15:20:03;;;;;;;;;;;14.70;96.80;;;;;;9854966;30;20036;-83
2022/09/24 15:25:05;;;;;;;13.57;10.30;;;14.50;97.70;;;;;;9844716;30;19917;-83
2022/09/24 15:30:10;;;;;;;15.60;7.90;;;14.50;97.30;;;;;;9854726;30;20047;-82
2022/09/24 15:35:14;;;;;;;10.82;6.13;;;14.50;98.10;;;;;;9857333;30;20040;-84
2022/09/24 15:40:24;;;;;;;10.40;6.15;;;14.40;98.60;;;;;;9855879;30;20065;-82
2022/09/24 15:45:25;;;;;;;10.52;5.85;;;14.20;99.40;;;;;;9856414;30;20057;-82
2022/09/24 15:50:25;;;;;;;12.02;7.25;;;13.80;99.90;;;;;;9859266;30;20088;-82
2022/09/24 15:55:27;;;;;;;17.90;9.77;;;13.50;99.90;;;;;;9859088;30;20043;-81
2022/09/24 16:00:27;;;;;;;20.52;9.52;;;13.30;99.90;;;;;;9854829;30;20042;-81
2022/09/24 16:05:28;;;;;;;17.00;8.77;;;13.20;99.90;;;;;;9855615;30;20051;-82
2022/09/24 16:10:28;;;;;;;19.98;9.80;;;13.00;99.90;;;;;;9855967;30;20500;-83
2022/09/24 16:15:29;;;;;;;15.40;9.90;;;12.80;99.90;;;;;;9854195;30;20035;-80
2022/09/24 16:20:30;;;;;;;13.80;8.32;;;12.70;99.90;;;;;;9843057;30;20038;-81
2022/09/24 16:25:31;;;;;;;13.40;7.65;;;12.70;99.90;;;;;;9859463;30;20051;-83
2022/09/24 16:30:31;;;;;;;13.57;8.35;;;12.60;99.90;;;;;;9838152;30;20036;-82
2022/09/24 16:35:32;;;;;;;10.68;6.88;;;12.50;99.90;;;;;;9857034;30;20134;-82
2022/09/24 16:40:32;;;;;;;12.48;8.05;;;12.40;99.90;;;;;;9854644;30;20049;-83
2022/09/24 16:45:33;;;;;;;16.77;9.20;;;12.10;99.90;;;;;;9862669;30;20528;-83
2022/09/24 16:50:34;;;;;;;19.33;10.98;;;11.90;99.90;;;;;;9861662;30;20039;-83
2022/09/24 16:55:34;;;;;;;23.25;13.43;;;11.90;99.90;;;;;;9848319;30;20203;-83
2022/09/24 17:00:35;;;;;;;28.05;15.40;;;11.70;99.90;;;;;;9842793;30;20616;-81
2022/09/24 17:05:39;;;;;;;24.27;14.05;;;11.70;99.90;;;;;;9864668;30;20051;-81
2022/09/24 17:10:48;;;;;;;24.15;13.88;;;11.60;99.90;;;;;;9863096;30;20102;-82
2022/09/24 17:15:49;;;;;;;23.38;14.68;;;11.50;99.90;;;;;;9864016;30;20446;-82
2022/09/24 17:20:59;;;;;;;30.88;17.85;;;11.40;99.90;;;;;;9839858;30;20146;-82
2022/09/24 17:26:11;;;;;;;29.30;17.13;;;11.30;99.90;;;;;;9866242;30;20165;-82
2022/09/24 17:31:15;;;;;;;30.35;18.02;;;11.10;99.90;;;;;;9859160;30;20173;-82
2022/09/24 17:36:15;;;;;;;28.88;17.70;;;11.00;99.90;;;;;;9864250;30;20051;-80
2022/09/24 17:41:17;;;;;;;37.95;21.45;;;10.90;99.90;;;;;;9861380;30;20039;-81
2022/09/24 17:46:20;;;;;;;38.67;21.08;;;10.90;99.90;;;;;;9857019;30;20043;-82
2022/09/24 17:51:37;;;;;;;32.72;19.17;;;10.80;99.90;;;;;;9862214;30;20034;-81
2022/09/24 17:56:38;;;;;;;25.08;16.13;;;10.80;99.90;;;;;;9858482;30;20513;-82
2022/09/24 18:01:40;;;;;;;21.77;13.65;;;10.70;99.90;;;;;;9861892;30;20108;-82
2022/09/24 18:06:43;;;;;;;22.52;12.50;;;10.80;99.90;;;;;;9863052;30;20031;-82
2022/09/24 18:11:46;;;;;;;30.05;18.48;;;10.80;99.90;;;;;;9862022;30;20546;-81
2022/09/24 18:16:50;;;;;;;33.40;19.55;;;10.80;99.90;;;;;;9861994;30;20231;-83
2022/09/24 18:21:51;;;;;;;46.25;27.13;;;10.80;99.90;;;;;;9863208;30;20474;-82
2022/09/24 18:26:51;;;;;;;40.20;25.58;;;10.80;99.90;;;;;;9863622;30;20039;-82
2022/09/24 18:31:52;;;;;;;49.00;28.55;;;10.80;99.90;;;;;;9863670;30;20672;-82
2022/09/24 18:36:53;;;;;;;44.70;26.42;;;10.80;99.90;;;;;;9862857;30;20058;-81
2022/09/24 18:41:53;;;;;;;43.47;26.98;;;10.80;99.90;;;;;;9860300;30;20706;-82
2022/09/24 18:46:54;;;;;;;45.40;27.58;;;10.80;99.90;;;;;;9862235;30;20035;-82
2022/09/24 18:51:54;;;;;;;48.28;29.08;;;10.80;99.90;;;;;;9861415;30;20043;-82
2022/09/24 18:56:55;;;;;;;42.83;25.60;;;10.70;99.90;;;;;;9862168;30;20036;-81
2022/09/24 19:01:56;;;;;;;60.60;36.17;;;10.80;99.90;;;;;;9862362;30;20113;-82
2022/09/24 19:06:56;;;;;;;50.22;29.98;;;10.90;99.90;;;;;;9860910;30;20526;-82
2022/09/24 19:11:57;;;;;;;56.78;32.20;;;10.80;99.90;;;;;;9862433;30;20659;-81
2022/09/24 19:16:58;;;;;;;68.13;35.17;;;10.80;99.90;;;;;;9861620;30;20047;-81
2022/09/24 19:21:58;;;;;;;69.05;37.10;;;10.70;99.90;;;;;;9845110;30;20036;-81
2022/09/24 19:26:59;;;;;;;55.80;30.98;;;10.50;99.90;;;;;;9861827;30;20085;-81
2022/09/24 19:31:59;;;;;;;45.20;26.75;;;10.40;99.90;;;;;;9860533;30;20039;-81
2022/09/24 19:37:00;;;;;;;44.40;23.30;;;10.30;99.90;;;;;;9861465;30;20035;-81
2022/09/24 19:42:00;;;;;;;42.63;26.00;;;10.30;99.90;;;;;;9861695;30;20028;-81
2022/09/24 19:47:01;;;;;;;41.43;24.80;;;10.20;99.90;;;;;;9860884;30;20031;-81
2022/09/24 19:52:03;;;;;;;41.33;24.10;;;10.10;99.90;;;;;;9860875;30;20504;-81
2022/09/24 19:57:04;;;;;;;41.00;24.13;;;10.00;99.90;;;;;;9861529;30;20124;-81
2022/09/24 20:02:04;;;;;;;38.72;24.75;;;9.90;99.90;;;;;;9860535;30;20186;-81
2022/09/24 20:07:05;;;;;;;41.17;24.93;;;9.80;99.90;;;;;;9844530;30;20043;-81
2022/09/24 20:12:06;;;;;;;56.77;35.67;;;9.80;99.90;;;;;;9860596;30;20044;-81
2022/09/24 20:17:06;;;;;;;62.73;37.23;;;9.70;99.90;;;;;;9859661;30;20413;-81
2022/09/24 20:22:07;;;;;;;52.30;31.60;;;9.60;99.90;;;;;;9867564;30;20031;-82
2022/09/24 20:32:30;;;;;;;55.33;31.97;;;9.40;99.90;;;;;;9866085;30;20064;-81
2022/09/24 20:37:30;;;;;;;46.20;27.13;;;9.30;99.90;;;;;;9867369;30;20036;-82
2022/09/24 20:42:31;;;;;;;44.57;27.53;;;9.30;99.90;;;;;;9867026;30;20088;-81
2022/09/24 20:47:31;;;;;;;50.40;27.70;;;9.10;99.90;;;;;;9860579;30;20047;-81
2022/09/24 20:52:32;;;;;;;49.03;28.50;;;9.10;99.90;;;;;;9862439;30;20039;-81
2022/09/24 20:57:33;;;;;;;45.57;26.80;;;8.90;99.90;;;;;;9865813;30;20474;-82
2022/09/24 21:02:33;;;;;;;43.73;25.77;;;8.90;99.90;;;;;;9865468;30;20116;-81
2022/09/24 21:07:38;;;;;;;45.63;27.47;;;8.90;99.90;;;;;;9849309;30;20417;-81
2022/09/24 21:12:39;;;;;;;41.60;26.43;;;8.90;99.90;;;;;;9847447;30;20070;-81
2022/09/24 21:17:41;;;;;;;44.80;27.13;;;8.80;99.90;;;;;;9865034;30;20031;-82
2022/09/24 21:22:42;;;;;;;43.87;25.23;;;8.80;99.90;;;;;;9849102;30;20036;-81
2022/09/24 21:27:42;;;;;;;41.37;24.83;;;8.80;99.90;;;;;;9849745;30;20044;-82
2022/09/24 21:32:43;;;;;;;41.23;25.37;;;8.90;99.90;;;;;;9843020;30;20044;-82
2022/09/24 21:37:46;;;;;;;47.23;29.10;;;8.90;99.90;;;;;;9863508;30;20141;-80
2022/09/24 21:42:47;;;;;;;49.03;28.50;;;8.70;99.90;;;;;;9862272;30;20035;-81
2022/09/24 21:47:47;;;;;;;42.30;25.83;;;8.70;99.90;;;;;;9863412;30;20100;-82
2022/09/24 21:52:49;;;;;;;52.47;30.73;;;8.70;99.90;;;;;;9844514;30;20084;-81
2022/09/24 21:57:50;;;;;;;48.30;27.00;;;8.60;99.90;;;;;;9847486;30;20162;-81
2022/09/24 22:02:50;;;;;;;51.40;29.93;;;8.60;99.90;;;;;;9848480;30;20194;-80
2022/09/24 22:07:53;;;;;;;48.87;30.33;;;8.50;99.90;;;;;;9844756;30;20028;-81
2022/09/24 22:12:54;;;;;;;53.03;29.43;;;8.50;99.90;;;;;;9853525;30;20517;-81
2022/09/24 22:17:55;;;;;;;49.23;31.23;;;8.40;99.90;;;;;;9857512;30;20123;-81
2022/09/24 22:22:55;;;;;;;51.47;31.03;;;8.40;99.90;;;;;;9841460;30;20069;-80
2022/09/24 22:27:56;;;;;;;54.27;32.27;;;8.30;99.90;;;;;;9860412;30;20046;-81
2022/09/24 22:32:56;;;;;;;50.17;30.73;;;8.30;99.90;;;;;;9857559;30;20055;-82
2022/09/24 22:37:57;;;;;;;57.90;33.47;;;8.30;99.90;;;;;;9845161;30;20045;-82
2022/09/24 22:42:57;;;;;;;61.43;36.93;;;8.20;99.90;;;;;;9840357;30;20031;-81
2022/09/24 22:47:58;;;;;;;60.20;36.13;;;8.10;99.90;;;;;;9858589;30;20039;-81
2022/09/24 22:53:00;;;;;;;56.70;33.43;;;8.10;99.90;;;;;;9859825;30;20043;-81
2022/09/24 22:58:01;;;;;;;54.00;31.27;;;8.20;99.90;;;;;;9861116;30;20440;-81
2022/09/24 23:03:02;;;;;;;58.10;32.83;;;8.20;99.90;;;;;;9856409;30;20071;-81
2022/09/24 23:08:03;;;;;;;58.07;33.73;;;8.20;99.90;;;;;;9845197;30;20036;-82
2022/09/24 23:13:03;;;;;;;61.10;35.17;;;8.20;99.90;;;;;;9860448;30;20043;-81
2022/09/24 23:18:04;;;;;;;57.27;34.73;;;8.20;99.90;;;;;;9860495;30;20044;-81
2022/09/24 23:23:04;;;;;;;53.53;34.23;;;8.20;99.90;;;;;;9858385;30;20520;-81
2022/09/24 23:28:05;;;;;;;59.13;36.00;;;8.20;99.90;;;;;;9860190;30;20032;-81
2022/09/24 23:33:05;;;;;;;63.63;36.73;;;8.20;99.90;;;;;;9855202;30;20513;-81
2022/09/24 23:38:06;;;;;;;65.60;37.17;;;8.20;99.90;;;;;;9859304;30;20055;-81
2022/09/24 23:43:07;;;;;;;64.00;37.00;;;8.20;99.90;;;;;;9856568;30;20559;-81
2022/09/24 23:48:07;;;;;;;65.50;37.97;;;8.10;99.90;;;;;;9860048;30;20058;-81
2022/09/24 23:53:08;;;;;;;66.40;37.67;;;8.10;99.90;;;;;;9861300;30;20046;-81
2022/09/24 23:58:09;;;;;;;58.90;35.83;;;8.00;99.90;;;;;;9850673;30;20076;-81
